KDFW/DFW METAR and TAF weather

Enter ICAO airport designator
Station Type Date Time Source
KDFW METAR 2018/08/14 09:53 UTC NOAA

KDFW 140953Z 16010KT 10SM -RA BKN070 OVC095 24/21 A2993 RMK AO2 LTG DSNT S SLP126 P0001 T02440211


Station Type Date Time Source
KDFW Decoded METAR 2018/08/14 09:53 UTC NOAA

DALLAS/FT. WORTH INTERNATIONAL AIRPORT , TX, United States (KDFW) 32-54N 097-02W 174M
Aug 14, 2018 - 05:53 AM EDT / 2018.08.14 0953 UTC
Wind: from the SSE (160 degrees) at 12 MPH (10 KT):0
Visibility: 10 mile(s):0
Sky conditions: overcast
Weather: light rain; Lightning observed
Precipitation last hour: 0.01 inches
Temperature: 75.9 F (24.4 C)
Dew Point: 70.0 F (21.1 C)
Relative Humidity: 81%
Pressure (altimeter): 29.93 in. Hg (1013 hPa)
ob: KDFW 140953Z 16010KT 10SM -RA BKN070 OVC095 24/21 A2993 RMK AO2 LTG DSNT S SLP126 P0001 T02440211
cycle: 10

Station Type Date Time Source
KDFW TAF 2018/08/14 09:12 UTC NOAA

TAF
AMD KDFW 140908Z 1409/1512 17008KT P6SM -SHRA BKN080
TEMPO 1412/1416 -RA BKN035
FM141600 19015G20KT P6SM SCT050 BKN150
FM150100 16011KT P6SM SCT100 SCT250


Example: see airport list